Aérodrome :
LOGIN :

S'inscrire | Disclaimer

   EN    FR    IT 

 










Légende :    VFR   VFR Marginal   IFR   IFR Intensif   IFR Très Intensif
Visi : 
Plafond : 
>= 8 km
>= 3000ft
5 à 8 km
1000 à 3000 ft
1500m à 5 km
500 à 1000 ft
800 à 1500m
200 à 500 ft
< 800m
< 200 ft
Symboles :   Orages  Brouillard  Fortes neiges  Fortes précipitations  Vent > 20 kt
SIGMETs :   Divers  Orages  Givrage  Turbulence  Onde Orograph.  Cendres Volcan.







- Altitude de l'aérodrome : 147 ft
- Code IATA : DUS


EDDL - Düsseldorf Int.

DERNIER METAR :
  • 230820Z 25009KT 190V280 9999 SCT022 BKN230 21/15 Q1015 NOSIG

METARs EXPIRÉS :
  • 230750Z 24009KT 210V290 9999 FEW021 BKN230 20/15 Q1015 NOSIG
  • 230720Z 25009KT 220V280 9999 FEW020 SCT047 BKN230 20/15 Q1015 NOSIG
  • 230650Z 25010KT 9999 SCT020 BKN048 19/14 Q1015 NOSIG
  • 230620Z 26013KT 9999 BKN020 BKN048 20/15 Q1014 NOSIG
  • 230550Z 25010KT 9999 FEW022 SCT029 BKN049 19/14 Q1014 NOSIG

TAF TAF EDDL
Valide du 23 à 06h jusqu'au 24 à 12h UTC


230500Z 2306/2412 25008KT 9999 SCT035
TEMPO 2309/2318 27013KT
BECMG 2406/2409 23013KT
TEMPO 2409/2412 24015G25KT
Pas de NOTAMs connus pour ce terrain.



MET'MAP, la Météo Aéronautique d'un coup d'oeil ! - Copyright ORBIFLY Décembre 2007 - Disclaimer

ORBIFLY MET'MAP TEAM :

Programmation & Développement : Alexandra Zaïnal
Conception & Développement : Baudouin d'Aumeries
Co-Programmation & Développement : Marc-Olivier Méhu
Soutien technique & logistique : Manuel Goepfert

Contact : metmap@orbifly.com




SOURCES & CREDITS :

   NOAA